createdAt,value
2022-12-15T00:00:01.692Z,10.70
2022-12-15T00:00:11.698Z,12.20
2022-12-15T00:00:21.749Z,12.10
2022-12-15T00:00:31.697Z,12.10
2022-12-15T00:00:41.828Z,11.80
2022-12-15T00:00:51.709Z,12.10
2022-12-15T00:01:01.827Z,11.70
2022-12-15T00:01:11.765Z,13.00
2022-12-15T00:01:21.693Z,14.30
2022-12-15T00:01:31.779Z,13.90
2022-12-15T00:01:41.697Z,13.30
2022-12-15T00:01:51.779Z,12.50
2022-12-15T00:02:01.764Z,11.20
2022-12-15T00:02:11.700Z,9.80
2022-12-15T00:02:22.006Z,9.80
2022-12-15T00:02:31.771Z,9.80
2022-12-15T00:02:41.843Z,10.00
2022-12-15T00:02:51.784Z,9.10
2022-12-15T00:03:01.850Z,9.90
2022-12-15T00:03:11.879Z,10.20
2022-12-15T00:03:21.865Z,10.60
2022-12-15T00:03:32.422Z,11.30
2022-12-15T00:03:41.882Z,12.80
2022-12-15T00:03:51.820Z,12.70
2022-12-15T00:04:01.913Z,12.90
2022-12-15T00:04:11.759Z,11.20
2022-12-15T00:04:21.686Z,11.60
2022-12-15T00:04:31.699Z,12.10
2022-12-15T00:04:41.794Z,12.90
2022-12-15T00:04:51.655Z,11.40
2022-12-15T00:05:01.778Z,10.40
2022-12-15T00:05:11.726Z,12.00
2022-12-15T00:05:21.861Z,13.10
2022-12-15T00:05:31.650Z,12.50
2022-12-15T00:05:41.694Z,10.30
2022-12-15T00:05:51.764Z,10.30
2022-12-15T00:06:01.721Z,12.30
2022-12-15T00:06:11.674Z,11.10
2022-12-15T00:06:21.786Z,11.70
2022-12-15T00:06:31.742Z,10.30
2022-12-15T00:06:41.820Z,10.60
2022-12-15T00:06:51.786Z,9.70
2022-12-15T00:07:01.820Z,10.40
2022-12-15T00:07:11.788Z,11.40
2022-12-15T00:07:21.778Z,11.90
2022-12-15T00:07:31.679Z,11.20
2022-12-15T00:07:41.712Z,11.70
2022-12-15T00:07:51.882Z,11.90
2022-12-15T00:08:01.696Z,11.00
2022-12-15T00:08:11.749Z,10.40
2022-12-15T00:08:21.745Z,9.80
2022-12-15T00:08:31.671Z,10.90
2022-12-15T00:08:41.670Z,12.20
2022-12-15T00:08:51.742Z,11.40
2022-12-15T00:09:01.673Z,12.40
2022-12-15T00:09:14.463Z,11.90
2022-12-15T00:09:24.043Z,12.00
2022-12-15T00:09:31.666Z,11.00
2022-12-15T00:09:41.662Z,11.40
2022-12-15T00:09:51.745Z,12.20
2022-12-15T00:10:01.710Z,12.10
2022-12-15T00:10:11.766Z,11.10
2022-12-15T00:10:21.762Z,9.70
2022-12-15T00:10:31.674Z,10.80
2022-12-15T00:10:41.671Z,11.30
2022-12-15T00:10:51.677Z,11.80
2022-12-15T00:11:01.730Z,10.80
2022-12-15T00:11:11.759Z,9.60
2022-12-15T00:11:21.747Z,11.10
2022-12-15T00:11:31.732Z,12.20
2022-12-15T00:11:41.777Z,14.00
2022-12-15T00:11:51.670Z,13.70
2022-12-15T00:12:01.759Z,13.40
2022-12-15T00:12:11.715Z,11.40
2022-12-15T00:12:21.704Z,8.80
2022-12-15T00:12:31.779Z,8.10
2022-12-15T00:12:41.782Z,9.40
2022-12-15T00:12:51.699Z,10.50
2022-12-15T00:13:01.706Z,9.40
2022-12-15T00:13:11.676Z,9.00
2022-12-15T00:13:21.772Z,8.20
2022-12-15T00:13:32.392Z,8.60
2022-12-15T00:13:41.697Z,9.50
2022-12-15T00:13:51.758Z,10.00
2022-12-15T00:14:01.654Z,10.60
2022-12-15T00:14:11.658Z,9.30
2022-12-15T00:14:21.667Z,9.10
2022-12-15T00:14:31.721Z,8.90
2022-12-15T00:14:41.759Z,8.10
2022-12-15T00:14:51.692Z,7.80
2022-12-15T00:15:01.739Z,7.40
2022-12-15T00:15:11.763Z,7.60
2022-12-15T00:15:21.769Z,9.00
2022-12-15T00:15:31.686Z,9.60
2022-12-15T00:15:41.832Z,10.70
2022-12-15T00:15:51.799Z,10.80
2022-12-15T00:16:01.856Z,11.40
2022-12-15T00:16:11.827Z,10.90
2022-12-15T00:16:21.782Z,9.30
2022-12-15T00:16:31.765Z,9.30
2022-12-15T00:16:41.680Z,9.90
2022-12-15T00:16:51.756Z,9.80
2022-12-15T00:17:01.671Z,9.20
2022-12-15T00:17:11.678Z,8.10
2022-12-15T00:17:21.763Z,7.60
2022-12-15T00:17:31.757Z,9.10
2022-12-15T00:17:41.729Z,10.60
2022-12-15T00:17:51.796Z,12.10
2022-12-15T00:18:01.748Z,12.50
2022-12-15T00:18:11.738Z,13.90
2022-12-15T00:18:21.663Z,14.40
2022-12-15T00:18:31.758Z,13.30
2022-12-15T00:18:41.689Z,11.80
2022-12-15T00:18:51.701Z,11.90
2022-12-15T00:19:01.772Z,11.80
2022-12-15T00:19:11.709Z,12.70
2022-12-15T00:19:21.704Z,12.20
2022-12-15T00:19:31.715Z,11.70
2022-12-15T00:19:41.650Z,10.10
2022-12-15T00:19:51.671Z,10.90
2022-12-15T00:20:01.730Z,10.00
2022-12-15T00:20:11.656Z,9.30
2022-12-15T00:20:21.804Z,7.50
2022-12-15T00:20:31.753Z,9.10
2022-12-15T00:20:41.672Z,10.40
2022-12-15T00:20:51.660Z,10.40
2022-12-15T00:21:01.700Z,12.20
2022-12-15T00:21:11.807Z,11.60
2022-12-15T00:21:21.780Z,11.80
2022-12-15T00:21:31.700Z,10.60
2022-12-15T00:21:41.655Z,11.40
2022-12-15T00:21:51.785Z,11.20
2022-12-15T00:22:01.746Z,11.50
2022-12-15T00:22:11.667Z,11.30
2022-12-15T00:22:21.705Z,11.80
2022-12-15T00:22:31.649Z,9.60
2022-12-15T00:22:41.743Z,10.00
2022-12-15T00:22:51.738Z,10.10
2022-12-15T00:23:01.713Z,9.70
2022-12-15T00:23:11.768Z,8.40
2022-12-15T00:23:21.654Z,9.00
2022-12-15T00:23:32.073Z,9.90
2022-12-15T00:23:41.781Z,10.00
2022-12-15T00:23:51.700Z,9.90
2022-12-15T00:24:01.680Z,9.60
2022-12-15T00:24:11.677Z,9.40
2022-12-15T00:24:21.675Z,8.20
2022-12-15T00:24:31.684Z,9.40
2022-12-15T00:24:41.699Z,10.90
2022-12-15T00:24:51.783Z,11.20
2022-12-15T00:25:01.686Z,13.50
2022-12-15T00:25:11.689Z,13.30
2022-12-15T00:25:21.776Z,13.40
2022-12-15T00:25:31.779Z,9.50
2022-12-15T00:25:41.669Z,8.20
2022-12-15T00:25:51.786Z,9.20
2022-12-15T00:26:01.675Z,11.20
2022-12-15T00:26:11.710Z,14.30
2022-12-15T00:26:21.735Z,12.60
2022-12-15T00:26:31.791Z,14.10
2022-12-15T00:26:41.764Z,11.50
2022-12-15T00:26:51.705Z,16.00
2022-12-15T00:27:01.690Z,13.30
2022-12-15T00:27:11.745Z,13.40
2022-12-15T00:27:21.734Z,10.20
2022-12-15T00:27:31.672Z,9.50
2022-12-15T00:27:41.655Z,9.10
2022-12-15T00:27:51.692Z,11.10
2022-12-15T00:28:01.740Z,10.80
2022-12-15T00:28:11.750Z,11.80
2022-12-15T00:28:21.702Z,8.70
2022-12-15T00:28:31.761Z,9.40
2022-12-15T00:28:41.764Z,9.40
2022-12-15T00:28:51.719Z,9.80
2022-12-15T00:29:01.660Z,9.80
2022-12-15T00:29:11.758Z,8.20
2022-12-15T00:29:21.679Z,8.20
2022-12-15T00:29:31.754Z,9.50
2022-12-15T00:29:41.655Z,9.00
2022-12-15T00:29:51.653Z,9.30
2022-12-15T00:30:01.742Z,9.00
2022-12-15T00:30:11.678Z,10.10
2022-12-15T00:30:21.697Z,10.40
2022-12-15T00:30:31.663Z,8.80
2022-12-15T00:30:41.757Z,8.20
2022-12-15T00:30:53.199Z,6.50
2022-12-15T00:31:02.747Z,7.70
2022-12-15T00:31:11.768Z,9.20
2022-12-15T00:31:21.835Z,11.70
2022-12-15T00:31:31.717Z,12.70
2022-12-15T00:31:41.783Z,11.10
2022-12-15T00:31:51.796Z,10.50
2022-12-15T00:32:01.798Z,9.60
2022-12-15T00:32:11.731Z,10.30
2022-12-15T00:32:21.676Z,8.50
2022-12-15T00:32:31.767Z,8.00
2022-12-15T00:32:41.701Z,7.50
2022-12-15T00:32:51.687Z,7.90
2022-12-15T00:33:01.716Z,7.60
2022-12-15T00:33:11.727Z,7.20
2022-12-15T00:33:21.764Z,8.80
2022-12-15T00:33:32.196Z,8.90
2022-12-15T00:33:41.761Z,9.60
2022-12-15T00:33:51.689Z,8.50
2022-12-15T00:34:01.654Z,9.30
2022-12-15T00:34:11.744Z,9.40
2022-12-15T00:34:21.721Z,9.80
2022-12-15T00:34:31.683Z,9.00
2022-12-15T00:34:41.766Z,8.60
2022-12-15T00:34:51.769Z,8.20
2022-12-15T00:35:01.735Z,8.30
2022-12-15T00:35:11.715Z,9.40
2022-12-15T00:35:21.732Z,9.30
2022-12-15T00:35:31.716Z,8.50
2022-12-15T00:35:41.715Z,8.20
2022-12-15T00:35:51.736Z,8.20
2022-12-15T00:36:01.649Z,9.70
2022-12-15T00:36:11.702Z,10.50
2022-12-15T00:36:21.765Z,10.90
2022-12-15T00:36:31.707Z,9.60
2022-12-15T00:36:41.786Z,8.60
2022-12-15T00:36:51.739Z,8.80
2022-12-15T00:37:01.772Z,10.50
2022-12-15T00:37:11.739Z,12.10
2022-12-15T00:37:21.698Z,10.10
2022-12-15T00:37:31.766Z,8.90
2022-12-15T00:37:41.709Z,6.60
2022-12-15T00:37:51.705Z,7.50
2022-12-15T00:38:01.649Z,7.10
2022-12-15T00:38:11.759Z,10.30
2022-12-15T00:38:21.811Z,11.30
2022-12-15T00:38:31.713Z,11.10
2022-12-15T00:38:41.745Z,8.20
2022-12-15T00:38:51.701Z,7.80
2022-12-15T00:39:03.932Z,8.30
2022-12-15T00:39:11.731Z,8.90
2022-12-15T00:39:21.657Z,8.80
2022-12-15T00:39:31.652Z,8.00
2022-12-15T00:39:41.747Z,8.00
2022-12-15T00:39:51.785Z,7.80
2022-12-15T00:40:01.654Z,8.50
2022-12-15T00:40:11.690Z,7.70
2022-12-15T00:40:21.718Z,11.00
2022-12-15T00:40:31.764Z,10.30
2022-12-15T00:40:41.694Z,11.60
2022-12-15T00:40:51.736Z,9.30
2022-12-15T00:41:01.727Z,11.80
2022-12-15T00:41:11.738Z,10.30
2022-12-15T00:41:21.683Z,10.00
2022-12-15T00:41:31.745Z,9.30
2022-12-15T00:41:41.702Z,10.20
2022-12-15T00:41:51.706Z,10.10
2022-12-15T00:42:01.663Z,9.70
2022-12-15T00:42:11.771Z,8.50
2022-12-15T00:42:21.662Z,6.90
2022-12-15T00:42:31.703Z,6.50
2022-12-15T00:42:41.740Z,7.80
2022-12-15T00:42:51.782Z,8.40
2022-12-15T00:43:01.740Z,9.40
2022-12-15T00:43:11.748Z,8.90
2022-12-15T00:43:21.692Z,9.40
2022-12-15T00:43:32.289Z,8.10
2022-12-15T00:43:41.683Z,8.00
2022-12-15T00:43:51.737Z,8.70
2022-12-15T00:44:01.717Z,8.70
2022-12-15T00:44:15.881Z,8.60
2022-12-15T00:44:21.690Z,9.10
2022-12-15T00:44:31.669Z,8.40
2022-12-15T00:44:41.773Z,7.90
2022-12-15T00:44:51.774Z,7.90
2022-12-15T00:45:01.750Z,10.20
2022-12-15T00:45:11.737Z,11.20
2022-12-15T00:45:21.761Z,9.40
2022-12-15T00:45:31.658Z,8.00
2022-12-15T00:45:41.661Z,9.60
2022-12-15T00:45:51.693Z,10.60
2022-12-15T00:46:01.783Z,10.30
2022-12-15T00:46:11.750Z,7.10
2022-12-15T00:46:21.841Z,5.90
2022-12-15T00:46:31.798Z,6.70
2022-12-15T00:46:41.742Z,7.90
2022-12-15T00:46:51.720Z,7.90
2022-12-15T00:47:01.839Z,7.80
2022-12-15T00:47:11.727Z,7.20
2022-12-15T00:47:21.682Z,6.50
2022-12-15T00:47:31.712Z,7.90
2022-12-15T00:47:41.721Z,10.20
2022-12-15T00:47:51.752Z,10.40
2022-12-15T00:48:01.697Z,9.50
2022-12-15T00:48:11.737Z,7.40
2022-12-15T00:48:21.755Z,7.00
2022-12-15T00:48:31.769Z,7.30
2022-12-15T00:48:41.709Z,8.00
2022-12-15T00:48:51.665Z,7.20
2022-12-15T00:49:01.707Z,7.20
2022-12-15T00:49:11.711Z,7.60
2022-12-15T00:49:21.736Z,9.00
2022-12-15T00:49:31.695Z,8.80
2022-12-15T00:49:41.740Z,7.90
2022-12-15T00:49:51.779Z,6.40
2022-12-15T00:50:01.776Z,6.20
2022-12-15T00:50:11.692Z,6.30
2022-12-15T00:50:21.676Z,10.70
2022-12-15T00:50:31.706Z,10.80
2022-12-15T00:50:41.673Z,10.50
2022-12-15T00:50:51.679Z,7.90
2022-12-15T00:51:01.718Z,8.50
2022-12-15T00:51:11.768Z,10.20
2022-12-15T00:51:21.672Z,11.80
2022-12-15T00:51:31.688Z,11.50
2022-12-15T00:51:41.778Z,15.20
2022-12-15T00:51:51.770Z,12.60
2022-12-15T00:52:01.689Z,12.40
2022-12-15T00:52:11.703Z,7.60
2022-12-15T00:52:21.746Z,8.00
2022-12-15T00:52:31.773Z,7.30
2022-12-15T00:52:41.779Z,6.60
2022-12-15T00:52:51.784Z,6.40
2022-12-15T00:53:01.669Z,7.20
2022-12-15T00:53:11.699Z,6.70
2022-12-15T00:53:21.765Z,7.30
2022-12-15T00:53:32.006Z,7.80
2022-12-15T00:53:41.734Z,8.20
2022-12-15T00:53:51.773Z,8.70
2022-12-15T00:54:01.659Z,9.40
2022-12-15T00:54:17.765Z,9.00
2022-12-15T00:54:21.698Z,8.30
2022-12-15T00:54:31.769Z,7.20
2022-12-15T00:54:41.705Z,9.00
2022-12-15T00:54:51.715Z,9.10
2022-12-15T00:55:01.681Z,9.20
2022-12-15T00:55:11.770Z,8.00
2022-12-15T00:55:21.711Z,8.10
2022-12-15T00:55:31.671Z,8.40
2022-12-15T00:55:41.697Z,8.40
2022-12-15T00:55:51.786Z,8.00
2022-12-15T00:56:01.757Z,7.80
2022-12-15T00:56:11.729Z,7.20
2022-12-15T00:56:21.683Z,6.50
2022-12-15T00:56:31.707Z,5.60
2022-12-15T00:56:41.768Z,7.00
2022-12-15T00:56:51.701Z,9.10
2022-12-15T00:57:01.715Z,10.20
2022-12-15T00:57:11.766Z,9.80
2022-12-15T00:57:21.734Z,8.50
2022-12-15T00:57:31.712Z,7.90
2022-12-15T00:57:41.655Z,7.50
2022-12-15T00:57:51.766Z,6.40
2022-12-15T00:58:01.721Z,6.80
2022-12-15T00:58:11.718Z,6.70
2022-12-15T00:58:21.749Z,10.50
2022-12-15T00:58:31.695Z,11.60
2022-12-15T00:58:41.782Z,14.20
2022-12-15T00:58:51.701Z,10.70
2022-12-15T00:59:01.685Z,9.40
2022-12-15T00:59:11.663Z,8.50
2022-12-15T00:59:21.704Z,8.90
2022-12-15T00:59:31.771Z,9.30
2022-12-15T00:59:41.676Z,8.20
2022-12-15T00:59:51.775Z,8.50
2022-12-15T01:00:01.748Z,8.20
2022-12-15T01:00:11.731Z,8.30
2022-12-15T01:00:21.769Z,8.00
2022-12-15T01:00:31.776Z,8.50
2022-12-15T01:00:41.742Z,9.30
2022-12-15T01:00:51.767Z,9.20
2022-12-15T01:01:01.779Z,8.80
2022-12-15T01:01:11.764Z,8.90
2022-12-15T01:01:21.857Z,9.50
2022-12-15T01:01:31.835Z,10.20
2022-12-15T01:01:41.819Z,8.00
2022-12-15T01:01:51.756Z,8.70
2022-12-15T01:02:01.925Z,9.20
2022-12-15T01:02:11.827Z,11.00
2022-12-15T01:02:21.941Z,10.50
2022-12-15T01:02:31.945Z,8.90
2022-12-15T01:02:41.928Z,7.90
2022-12-15T01:02:51.946Z,7.90
2022-12-15T01:03:01.982Z,11.40
2022-12-15T01:03:11.830Z,11.10
2022-12-15T01:03:21.954Z,11.10
2022-12-15T01:03:32.300Z,8.70
2022-12-15T01:03:41.898Z,9.30
2022-12-15T01:03:51.964Z,8.70
2022-12-15T01:04:01.847Z,8.20
2022-12-15T01:04:11.781Z,8.10
2022-12-15T01:04:21.796Z,8.30
2022-12-15T01:04:31.749Z,10.10
2022-12-15T01:04:41.800Z,9.00
2022-12-15T01:04:51.784Z,10.80
2022-12-15T01:05:01.711Z,8.90
2022-12-15T01:05:11.660Z,11.40
2022-12-15T01:05:21.730Z,10.20
2022-12-15T01:05:31.663Z,10.80
2022-12-15T01:05:41.681Z,10.40
2022-12-15T01:05:51.793Z,10.30
2022-12-15T01:06:01.670Z,9.90
2022-12-15T01:06:11.728Z,8.10
2022-12-15T01:06:21.656Z,8.10
2022-12-15T01:06:31.831Z,7.70
2022-12-15T01:06:41.785Z,7.80
2022-12-15T01:06:51.732Z,7.70
2022-12-15T01:07:01.759Z,8.10
2022-12-15T01:07:11.788Z,9.60
2022-12-15T01:07:21.752Z,9.60
2022-12-15T01:07:31.706Z,10.20
2022-12-15T01:07:41.747Z,8.90
2022-12-15T01:07:51.689Z,7.90
2022-12-15T01:08:01.796Z,7.80
2022-12-15T01:08:11.706Z,8.00
2022-12-15T01:08:21.732Z,8.00
2022-12-15T01:08:31.686Z,7.40
2022-12-15T01:08:41.680Z,7.40
2022-12-15T01:08:51.740Z,7.70
2022-12-15T01:09:01.687Z,6.90
2022-12-15T01:09:11.755Z,8.50
2022-12-15T01:09:21.739Z,10.30
2022-12-15T01:09:31.750Z,11.80
2022-12-15T01:09:41.652Z,11.20
2022-12-15T01:09:51.770Z,10.90
2022-12-15T01:10:01.795Z,9.70
2022-12-15T01:10:11.684Z,9.20
2022-12-15T01:10:21.739Z,7.50
2022-12-15T01:10:31.786Z,8.20
2022-12-15T01:10:41.786Z,8.20
2022-12-15T01:10:51.702Z,9.20
2022-12-15T01:11:01.746Z,9.10
2022-12-15T01:11:11.663Z,10.50
2022-12-15T01:11:21.739Z,9.90
2022-12-15T01:11:31.764Z,9.20
2022-12-15T01:11:41.700Z,8.20
2022-12-15T01:11:51.650Z,7.10
2022-12-15T01:12:01.726Z,7.50
2022-12-15T01:12:11.688Z,7.30
2022-12-15T01:12:21.730Z,9.30
2022-12-15T01:12:31.737Z,9.90
2022-12-15T01:12:41.680Z,10.60
2022-12-15T01:12:51.749Z,11.50
2022-12-15T01:13:01.714Z,11.00
2022-12-15T01:13:11.665Z,10.60
2022-12-15T01:13:21.665Z,7.90
2022-12-15T01:13:32.134Z,7.00
2022-12-15T01:13:41.721Z,5.50
2022-12-15T01:13:51.738Z,5.70
2022-12-15T01:14:01.693Z,7.60
2022-12-15T01:14:11.783Z,8.60
2022-12-15T01:14:21.683Z,8.70
2022-12-15T01:14:31.764Z,7.30
2022-12-15T01:14:41.723Z,8.70
2022-12-15T01:14:51.816Z,8.70
2022-12-15T01:15:01.717Z,9.80
2022-12-15T01:15:11.780Z,7.80
2022-12-15T01:15:21.663Z,10.70
2022-12-15T01:15:31.728Z,10.20
2022-12-15T01:15:41.708Z,12.80
2022-12-15T01:15:51.829Z,10.10
2022-12-15T01:16:01.775Z,10.50
2022-12-15T01:16:11.759Z,9.20
2022-12-15T01:16:21.708Z,11.40
2022-12-15T01:16:31.711Z,11.20
2022-12-15T01:16:41.903Z,10.90
2022-12-15T01:16:51.744Z,10.60
2022-12-15T01:17:01.723Z,11.10
2022-12-15T01:17:11.708Z,11.20
2022-12-15T01:17:21.697Z,10.80
2022-12-15T01:17:31.663Z,12.50
2022-12-15T01:17:41.658Z,13.40
2022-12-15T01:17:51.703Z,14.00
2022-12-15T01:18:01.784Z,13.20
2022-12-15T01:18:11.719Z,13.40
2022-12-15T01:18:21.691Z,12.50
2022-12-15T01:18:31.654Z,13.10
2022-12-15T01:18:41.778Z,11.80
2022-12-15T01:18:51.734Z,11.40
2022-12-15T01:19:01.691Z,9.90
2022-12-15T01:19:11.770Z,12.60
2022-12-15T01:19:21.780Z,13.70
2022-12-15T01:19:31.663Z,13.40
2022-12-15T01:19:41.700Z,10.60
2022-12-15T01:19:51.780Z,10.10
2022-12-15T01:20:01.693Z,11.30
2022-12-15T01:20:11.708Z,10.80
2022-12-15T01:20:21.782Z,10.60
2022-12-15T01:20:31.719Z,10.50
2022-12-15T01:20:41.728Z,11.20
2022-12-15T01:20:51.723Z,10.40
2022-12-15T01:21:01.684Z,9.60
2022-12-15T01:21:11.659Z,10.40
2022-12-15T01:21:24.607Z,10.80
2022-12-15T01:21:31.681Z,10.30
2022-12-15T01:21:41.752Z,8.60
2022-12-15T01:21:51.723Z,7.60
2022-12-15T01:22:01.758Z,7.50
2022-12-15T01:22:11.651Z,7.20
2022-12-15T01:22:21.681Z,6.70
2022-12-15T01:22:31.804Z,5.70
2022-12-15T01:22:41.746Z,4.70
2022-12-15T01:22:51.739Z,5.90
2022-12-15T01:23:01.721Z,6.70
2022-12-15T01:23:11.669Z,8.00
2022-12-15T01:23:21.713Z,7.60
2022-12-15T01:23:32.044Z,7.40
2022-12-15T01:23:41.733Z,7.30
2022-12-15T01:23:51.694Z,6.60
2022-12-15T01:24:01.685Z,7.80
2022-12-15T01:24:11.736Z,6.70
2022-12-15T01:24:21.669Z,6.90
2022-12-15T01:24:31.700Z,5.20
2022-12-15T01:24:41.712Z,7.20
2022-12-15T01:24:51.707Z,8.80
2022-12-15T01:25:01.702Z,11.10
2022-12-15T01:25:11.732Z,9.10
2022-12-15T01:25:21.678Z,7.90
2022-12-15T01:25:31.769Z,8.50
2022-12-15T01:25:41.668Z,9.10
2022-12-15T01:25:51.678Z,8.40
2022-12-15T01:26:01.660Z,6.60
2022-12-15T01:26:11.738Z,6.70
2022-12-15T01:26:21.652Z,6.40
2022-12-15T01:26:31.712Z,6.30
2022-12-15T01:26:41.674Z,6.50
2022-12-15T01:26:51.724Z,7.20
2022-12-15T01:27:01.679Z,7.20
2022-12-15T01:27:11.709Z,10.00
2022-12-15T01:27:21.746Z,10.30
2022-12-15T01:27:31.745Z,9.60
2022-12-15T01:27:41.773Z,6.70
2022-12-15T01:27:51.690Z,7.10
2022-12-15T01:28:01.725Z,7.90
2022-12-15T01:28:11.723Z,7.30
2022-12-15T01:28:21.695Z,6.70
2022-12-15T01:28:31.710Z,6.70
2022-12-15T01:28:41.777Z,7.20
2022-12-15T01:28:51.719Z,6.80
2022-12-15T01:29:01.771Z,9.00
2022-12-15T01:29:11.774Z,9.50
2022-12-15T01:29:21.707Z,9.70
2022-12-15T01:29:31.750Z,7.30
2022-12-15T01:29:41.658Z,7.10
2022-12-15T01:29:51.655Z,7.80
2022-12-15T01:30:01.661Z,8.50
2022-12-15T01:30:11.753Z,7.70
2022-12-15T01:30:21.761Z,7.60
2022-12-15T01:30:31.751Z,7.50
2022-12-15T01:30:41.687Z,9.60
2022-12-15T01:30:51.771Z,10.00
2022-12-15T01:31:01.837Z,9.50
2022-12-15T01:31:11.856Z,7.60
2022-12-15T01:31:21.783Z,7.30
2022-12-15T01:31:31.803Z,7.60
2022-12-15T01:31:41.790Z,7.20
2022-12-15T01:31:51.726Z,7.90
2022-12-15T01:32:01.768Z,9.10
2022-12-15T01:32:11.663Z,9.10
2022-12-15T01:32:21.690Z,8.20
2022-12-15T01:32:31.691Z,8.00
2022-12-15T01:32:45.982Z,9.30
2022-12-15T01:32:51.656Z,9.50
2022-12-15T01:33:01.723Z,8.30
2022-12-15T01:33:11.649Z,7.10
2022-12-15T01:33:21.735Z,8.30
2022-12-15T01:33:32.158Z,9.20
2022-12-15T01:33:41.725Z,10.80
2022-12-15T01:33:51.731Z,10.10
2022-12-15T01:34:01.652Z,9.20
2022-12-15T01:34:11.729Z,9.80
2022-12-15T01:34:21.701Z,8.80
2022-12-15T01:34:31.775Z,10.00
2022-12-15T01:34:41.747Z,8.80
2022-12-15T01:34:51.730Z,9.30
2022-12-15T01:35:01.717Z,8.50
2022-12-15T01:35:11.738Z,7.90
2022-12-15T01:35:21.752Z,7.40
2022-12-15T01:35:31.733Z,9.00
2022-12-15T01:35:41.784Z,9.30
2022-12-15T01:35:51.755Z,11.40
2022-12-15T01:36:01.677Z,9.90
2022-12-15T01:36:11.797Z,10.20
2022-12-15T01:36:21.692Z,8.10
2022-12-15T01:36:31.662Z,6.90
2022-12-15T01:36:41.750Z,7.70
2022-12-15T01:36:51.746Z,7.60
2022-12-15T01:37:01.739Z,8.30
2022-12-15T01:37:11.664Z,7.40
2022-12-15T01:37:21.742Z,6.60
2022-12-15T01:37:31.657Z,6.70
2022-12-15T01:37:41.747Z,5.50
2022-12-15T01:37:51.685Z,6.90
2022-12-15T01:38:01.695Z,6.90
2022-12-15T01:38:11.781Z,7.80
2022-12-15T01:38:21.777Z,7.70
2022-12-15T01:38:31.711Z,7.40
2022-12-15T01:38:41.700Z,6.70
2022-12-15T01:38:54.261Z,5.30
2022-12-15T01:39:01.669Z,5.40
2022-12-15T01:39:11.716Z,4.40
2022-12-15T01:39:21.726Z,5.70
2022-12-15T01:39:31.756Z,6.20
2022-12-15T01:39:41.678Z,8.00
2022-12-15T01:39:51.717Z,7.40
2022-12-15T01:40:01.661Z,7.40
2022-12-15T01:40:11.758Z,6.60
2022-12-15T01:40:21.671Z,7.60
2022-12-15T01:40:31.689Z,6.90
2022-12-15T01:40:41.721Z,7.40
2022-12-15T01:40:51.675Z,6.60
2022-12-15T01:41:01.696Z,6.40
2022-12-15T01:41:11.665Z,6.10
2022-12-15T01:41:21.658Z,6.00
2022-12-15T01:41:31.799Z,6.10
2022-12-15T01:41:41.757Z,6.00
2022-12-15T01:41:51.756Z,5.80
2022-12-15T01:42:01.744Z,6.40
2022-12-15T01:42:11.704Z,7.70
2022-12-15T01:42:21.740Z,8.30
2022-12-15T01:42:31.774Z,8.10
2022-12-15T01:42:41.732Z,6.20
2022-12-15T01:42:51.719Z,5.10
2022-12-15T01:43:01.770Z,5.40
2022-12-15T01:43:11.687Z,8.60
2022-12-15T01:43:21.725Z,8.30
2022-12-15T01:43:31.967Z,11.60
2022-12-15T01:43:41.777Z,9.30
2022-12-15T01:43:51.713Z,9.70
2022-12-15T01:44:01.660Z,7.00
2022-12-15T01:44:11.777Z,6.90
2022-12-15T01:44:21.748Z,7.10
2022-12-15T01:44:31.671Z,6.40
2022-12-15T01:44:41.748Z,5.60
2022-12-15T01:44:51.717Z,6.10
2022-12-15T01:45:01.686Z,5.60
2022-12-15T01:45:11.769Z,6.50
2022-12-15T01:45:21.683Z,6.60
2022-12-15T01:45:31.703Z,6.00
2022-12-15T01:45:41.683Z,5.90
2022-12-15T01:45:51.652Z,6.30
2022-12-15T01:46:01.757Z,8.70
2022-12-15T01:46:11.797Z,8.60
2022-12-15T01:46:21.716Z,8.00
2022-12-15T01:46:31.876Z,6.60
2022-12-15T01:46:41.810Z,6.00
2022-12-15T01:46:51.868Z,6.90
2022-12-15T01:47:01.865Z,6.20
2022-12-15T01:47:11.806Z,7.50
2022-12-15T01:47:21.717Z,6.60
2022-12-15T01:47:31.754Z,7.90
2022-12-15T01:47:41.687Z,7.00
2022-12-15T01:47:51.747Z,6.80
2022-12-15T01:48:01.663Z,7.50
2022-12-15T01:48:11.765Z,7.00
2022-12-15T01:48:21.709Z,7.60
2022-12-15T01:48:31.664Z,5.20
2022-12-15T01:48:41.707Z,5.40
2022-12-15T01:48:51.712Z,7.10
2022-12-15T01:49:01.712Z,7.60
2022-12-15T01:49:11.769Z,9.50
2022-12-15T01:49:21.693Z,7.20
2022-12-15T01:49:31.720Z,7.80
2022-12-15T01:49:41.776Z,6.30
2022-12-15T01:49:51.663Z,6.50
2022-12-15T01:50:01.784Z,6.80
2022-12-15T01:50:11.787Z,7.90
2022-12-15T01:50:21.709Z,9.10
2022-12-15T01:50:31.765Z,7.80
2022-12-15T01:50:41.759Z,7.70
2022-12-15T01:50:51.675Z,5.90
2022-12-15T01:51:01.710Z,6.30
2022-12-15T01:51:11.686Z,5.10
2022-12-15T01:51:21.728Z,6.00
2022-12-15T01:51:31.700Z,5.80
2022-12-15T01:51:41.760Z,5.40
2022-12-15T01:51:51.709Z,4.20
2022-12-15T01:52:01.745Z,4.30
2022-12-15T01:52:11.732Z,4.40
2022-12-15T01:52:21.670Z,5.00
2022-12-15T01:52:31.692Z,5.80
2022-12-15T01:52:41.659Z,6.20
2022-12-15T01:52:51.731Z,5.90
2022-12-15T01:53:01.712Z,5.50
2022-12-15T01:53:11.665Z,5.30
2022-12-15T01:53:21.710Z,5.50
2022-12-15T01:53:32.128Z,4.40
2022-12-15T01:53:41.776Z,5.30
2022-12-15T01:53:51.698Z,7.40
2022-12-15T01:54:01.764Z,9.20
2022-12-15T01:54:11.689Z,8.70
2022-12-15T01:54:21.734Z,7.80
2022-12-15T01:54:31.766Z,6.90
2022-12-15T01:54:41.743Z,8.20
2022-12-15T01:54:51.792Z,6.60
2022-12-15T01:55:01.714Z,7.60
2022-12-15T01:55:11.716Z,5.80
2022-12-15T01:55:21.777Z,7.30
2022-12-15T01:55:31.667Z,5.70
2022-12-15T01:55:41.746Z,5.50
2022-12-15T01:55:51.750Z,5.70
2022-12-15T01:56:01.680Z,6.40
2022-12-15T01:56:11.769Z,8.70
2022-12-15T01:56:21.703Z,9.80
2022-12-15T01:56:37.092Z,8.70
2022-12-15T01:56:41.698Z,7.70
2022-12-15T01:56:51.761Z,5.80
2022-12-15T01:57:01.695Z,6.50
2022-12-15T01:57:11.681Z,6.50
2022-12-15T01:57:21.664Z,6.50
2022-12-15T01:57:31.716Z,6.50
2022-12-15T01:57:41.657Z,6.10
2022-12-15T01:57:51.725Z,5.70
2022-12-15T01:58:01.667Z,5.30
2022-12-15T01:58:11.736Z,4.80
2022-12-15T01:58:21.707Z,5.50
2022-12-15T01:58:31.758Z,6.20
2022-12-15T01:58:41.659Z,6.00
2022-12-15T01:58:51.719Z,7.90
2022-12-15T01:59:01.743Z,7.80
2022-12-15T01:59:11.702Z,8.80
2022-12-15T01:59:21.735Z,6.40
2022-12-15T01:59:31.723Z,6.10
2022-12-15T01:59:41.655Z,6.40
2022-12-15T01:59:51.687Z,6.90
2022-12-15T02:00:01.692Z,8.20
2022-12-15T02:00:11.671Z,6.90
2022-12-15T02:00:21.936Z,8.50
2022-12-15T02:00:31.795Z,7.90
2022-12-15T02:00:41.683Z,8.80
2022-12-15T02:00:51.746Z,7.00
2022-12-15T02:01:01.761Z,6.00
2022-12-15T02:01:11.713Z,5.50
2022-12-15T02:01:21.875Z,6.40
2022-12-15T02:01:31.700Z,7.90
2022-12-15T02:01:41.960Z,8.30
2022-12-15T02:01:51.897Z,7.10
2022-12-15T02:02:01.833Z,6.60
2022-12-15T02:02:11.839Z,7.20
2022-12-15T02:02:21.868Z,6.90
2022-12-15T02:02:36.931Z,6.10
2022-12-15T02:02:41.921Z,4.80
2022-12-15T02:02:51.799Z,4.30
2022-12-15T02:03:01.969Z,5.10
2022-12-15T02:03:11.716Z,5.00
2022-12-15T02:03:21.878Z,5.60
2022-12-15T02:03:32.442Z,5.30
2022-12-15T02:03:41.681Z,5.80
2022-12-15T02:03:51.784Z,6.50
2022-12-15T02:04:01.697Z,7.20
2022-12-15T02:04:11.667Z,8.20
2022-12-15T02:04:21.735Z,7.70
2022-12-15T02:04:31.726Z,9.50
2022-12-15T02:04:41.744Z,10.40
2022-12-15T02:04:51.805Z,10.40
2022-12-15T02:05:01.662Z,8.80
2022-12-15T02:05:11.723Z,7.10
2022-12-15T02:05:21.781Z,7.60
2022-12-15T02:05:31.770Z,7.90
2022-12-15T02:05:41.735Z,7.80
2022-12-15T02:05:51.710Z,8.00
2022-12-15T02:06:01.651Z,7.00
2022-12-15T02:06:11.761Z,7.10
2022-12-15T02:06:21.786Z,5.50
2022-12-15T02:06:31.785Z,5.40
2022-12-15T02:06:41.715Z,5.90
2022-12-15T02:06:51.722Z,6.10
2022-12-15T02:07:01.795Z,7.70
2022-12-15T02:07:11.736Z,6.60
2022-12-15T02:07:21.679Z,7.10
2022-12-15T02:07:31.649Z,5.10
2022-12-15T02:07:41.773Z,6.40
2022-12-15T02:07:51.692Z,6.00
2022-12-15T02:08:01.807Z,6.50
2022-12-15T02:08:11.746Z,5.80
2022-12-15T02:08:21.721Z,6.30
2022-12-15T02:08:31.765Z,6.90
2022-12-15T02:08:41.712Z,8.20
2022-12-15T02:08:51.689Z,8.70
2022-12-15T02:09:01.787Z,8.30
2022-12-15T02:09:11.742Z,8.00
2022-12-15T02:09:21.776Z,7.00
2022-12-15T02:09:31.767Z,6.10
2022-12-15T02:09:41.673Z,6.00
2022-12-15T02:09:51.760Z,6.90
2022-12-15T02:10:01.726Z,7.80
2022-12-15T02:10:11.767Z,8.60
2022-12-15T02:10:21.762Z,8.70
2022-12-15T02:10:31.654Z,8.90
2022-12-15T02:10:41.698Z,9.00
2022-12-15T02:10:51.658Z,8.80
2022-12-15T02:11:01.768Z,8.70
2022-12-15T02:11:11.672Z,7.20
2022-12-15T02:11:21.658Z,6.80
2022-12-15T02:11:31.673Z,6.40
2022-12-15T02:11:41.775Z,6.60